createdAt,value
2023-04-03T00:04:06.049Z,1.4
2023-04-03T00:06:09.665Z,1.5
2023-04-03T00:08:13.410Z,1.8
2023-04-03T00:10:17.134Z,1.3
2023-04-03T00:12:20.852Z,1.1
2023-04-03T00:16:31.416Z,1.4
2023-04-03T00:21:42.227Z,1.1
2023-04-03T00:23:46.146Z,1.2
2023-04-03T00:25:49.554Z,1.4
2023-04-03T00:27:53.301Z,1.5
2023-04-03T00:30:00.225Z,1.6
2023-04-03T00:36:11.309Z,1.4
2023-04-03T00:42:22.395Z,1.4
2023-04-03T00:46:33.026Z,1.3
2023-04-03T00:48:36.648Z,1.5
2023-04-03T00:50:40.321Z,1.7
2023-04-03T00:52:44.057Z,1.3
2023-04-03T00:54:47.806Z,1.1
2023-04-03T00:56:51.460Z,1.3
2023-04-03T00:58:58.272Z,1.7
2023-04-03T01:03:05.683Z,2
2023-04-03T01:05:09.435Z,1.3
2023-04-03T01:11:20.608Z,1.6
2023-04-03T01:15:31.213Z,1.7
2023-04-03T01:18:38.285Z,1.8
2023-04-03T01:20:41.904Z,1.4
2023-04-03T01:22:45.619Z,1.4
2023-04-03T01:24:49.368Z,2.5
2023-04-03T01:26:56.192Z,1.9
2023-04-03T01:28:59.906Z,2.3
2023-04-03T01:31:03.750Z,1.4
2023-04-03T01:33:07.477Z,1.7
2023-04-03T01:35:11.198Z,2.2
2023-04-03T01:37:14.928Z,2.2
2023-04-03T01:39:18.598Z,1.7
2023-04-03T01:41:25.400Z,2.2
2023-04-03T01:45:32.976Z,1.8
2023-04-03T01:53:47.788Z,1.7
2023-04-03T01:55:54.616Z,2.3
2023-04-03T02:00:02.220Z,1.6
2023-04-03T02:02:05.902Z,2.3
2023-04-03T02:04:09.626Z,1.9
2023-04-03T02:06:13.328Z,1.8
2023-04-03T02:08:17.075Z,2.2
2023-04-03T02:10:24.015Z,2.1
2023-04-03T02:12:27.746Z,1.7
2023-04-03T02:14:31.462Z,2.4
2023-04-03T02:16:37.832Z,2.1
2023-04-03T02:18:41.403Z,2.1
2023-04-03T02:20:45.139Z,2.4
2023-04-03T02:22:51.422Z,2.1
2023-04-03T02:24:55.191Z,2.3
2023-04-03T02:26:58.899Z,1.9
2023-04-03T02:29:05.032Z,2.1
2023-04-03T02:35:18.841Z,2.2
2023-04-03T02:45:39.821Z,2.1
2023-04-03T02:47:46.044Z,2.1
2023-04-03T02:56:03.259Z,2.7
2023-04-03T03:00:13.301Z,3
2023-04-03T03:02:17.002Z,2.7
2023-04-03T03:06:27.037Z,3
2023-04-03T03:10:34.955Z,2.7
2023-04-03T03:16:48.327Z,2.5
2023-04-03T03:23:02.049Z,2.9
2023-04-03T03:28:14.580Z,2.2
2023-04-03T03:30:18.237Z,2.8
2023-04-03T03:32:22.054Z,2.9
2023-04-03T03:34:28.174Z,3.1
2023-04-03T03:36:31.912Z,3
2023-04-03T03:38:35.661Z,3.1
2023-04-03T03:43:42.613Z,2.7
2023-04-03T03:45:46.238Z,2.4
2023-04-03T03:47:50.095Z,2.6
2023-04-03T03:49:56.271Z,2.8
2023-04-03T03:54:03.776Z,2.7
2023-04-03T03:56:10.060Z,2.8
2023-04-03T03:58:13.845Z,3.1
2023-04-03T04:00:17.552Z,3.1
2023-04-03T04:06:31.375Z,3.1
2023-04-03T04:08:37.646Z,3
2023-04-03T04:10:41.410Z,3.2
2023-04-03T04:12:45.141Z,3.2
2023-04-03T04:14:51.414Z,2.8
2023-04-03T04:21:05.151Z,3.7
2023-04-03T04:23:08.783Z,3.6
2023-04-03T04:25:12.500Z,3.4
2023-04-03T04:27:18.639Z,3.4
2023-04-03T04:29:22.405Z,3.9
2023-04-03T04:31:26.142Z,3.6
2023-04-03T04:35:36.283Z,3.6
2023-04-03T04:37:39.692Z,3.2
2023-04-03T04:39:45.966Z,4
2023-04-03T04:41:49.721Z,3.3
2023-04-03T04:43:53.452Z,3.4
2023-04-03T04:45:59.760Z,3
2023-04-03T04:48:03.542Z,3.2
2023-04-03T04:50:07.225Z,3.9
2023-04-03T05:07:46.442Z,3.8
2023-04-03T05:09:50.194Z,4.6
2023-04-03T05:11:53.808Z,3.7
2023-04-03T05:14:00.108Z,3.9
2023-04-03T05:16:03.758Z,4
2023-04-03T05:18:07.477Z,4.1
2023-04-03T05:29:10.119Z,4
2023-04-03T05:31:13.890Z,4.6
2023-04-03T05:35:23.835Z,4.5
2023-04-03T05:39:33.855Z,5.6
2023-04-03T05:41:37.566Z,5
2023-04-03T05:43:41.285Z,5
2023-04-03T05:48:44.360Z,4.6
2023-04-03T05:50:48.024Z,5.5
2023-04-03T05:52:51.780Z,5.9
2023-04-03T05:54:58.019Z,5.9
2023-04-03T05:57:01.803Z,5
2023-04-03T05:59:05.516Z,7.1
2023-04-03T06:01:11.776Z,8.2
2023-04-03T06:03:15.635Z,6.3
2023-04-03T06:05:19.169Z,7.5
2023-04-03T06:07:25.415Z,8.6
2023-04-03T06:17:46.567Z,10.6
2023-04-03T06:34:33.928Z,3
2023-04-03T06:36:37.595Z,2.5
2023-04-03T06:38:41.579Z,1.8
2023-04-03T06:42:51.658Z,2.7
2023-04-03T06:44:55.292Z,1.3
2023-04-03T06:46:58.938Z,1.6
2023-04-03T06:49:02.612Z,2.3
2023-04-03T06:55:16.616Z,1.7
2023-04-03T06:59:23.872Z,1.5
2023-04-03T07:01:27.534Z,1.4
2023-04-03T07:03:31.188Z,1.8
2023-04-03T07:05:34.835Z,2
2023-04-03T07:07:38.465Z,1.2
2023-04-03T07:09:45.392Z,1.8
2023-04-03T07:13:52.431Z,1.7
2023-04-03T07:14:55.758Z,1.3
2023-04-03T07:19:03.063Z,1
2023-04-03T07:21:06.730Z,0.9
2023-04-03T07:23:13.402Z,1.2
2023-04-03T07:25:17.073Z,1.4
2023-04-03T07:27:20.696Z,0.7
2023-04-03T07:35:35.331Z,1.1
2023-04-03T07:37:41.970Z,1.2
2023-04-03T07:39:45.558Z,1.1
2023-04-03T07:43:52.852Z,1
2023-04-03T07:45:56.515Z,0.9
2023-04-03T07:52:10.481Z,1.1
2023-04-03T07:54:14.071Z,1.1
2023-04-03T07:56:17.727Z,1.6
2023-04-03T07:58:21.338Z,0.8
2023-04-03T08:00:24.973Z,1
2023-04-03T08:02:28.635Z,1
2023-04-03T08:06:46.448Z,1.5
2023-04-03T08:10:46.207Z,0.8
2023-04-03T08:11:49.501Z,0.7
2023-04-03T08:18:00.499Z,0.9
2023-04-03T08:24:14.311Z,0.8
2023-04-03T08:26:17.929Z,0.8
2023-04-03T08:28:21.519Z,0.7
2023-04-03T08:30:25.116Z,0.9
2023-04-03T08:32:32.164Z,0.9
2023-04-03T08:34:35.417Z,1.5
2023-04-03T08:36:39.022Z,0.4
2023-04-03T08:38:42.628Z,0.5
2023-04-03T08:40:46.222Z,0.7
2023-04-03T08:42:50.001Z,0.7
2023-04-03T08:44:53.420Z,0.4
2023-04-03T08:46:57.805Z,0.4
2023-04-03T08:51:10.932Z,0.7
2023-04-03T08:53:10.924Z,0.7
2023-04-03T08:55:14.485Z,0.3
2023-04-03T08:57:18.102Z,0.4
2023-04-03T08:59:21.689Z,0.9
2023-04-03T09:01:25.430Z,0.4
2023-04-03T09:03:32.015Z,0.5
2023-04-03T09:05:35.703Z,0.5
2023-04-03T09:07:39.131Z,0.8
2023-04-03T09:12:49.761Z,0.4
2023-04-03T09:19:03.535Z,0.8
2023-04-03T09:23:10.669Z,0.4
2023-04-03T09:25:14.284Z,0.9
2023-04-03T09:31:28.215Z,0.5
2023-04-03T09:33:31.713Z,0.5
2023-04-03T09:35:44.993Z,0.9
2023-04-03T09:37:39.766Z,0.6
2023-04-03T09:39:42.431Z,0.2
2023-04-03T09:41:46.039Z,0.7
2023-04-03T09:43:49.629Z,0.5
2023-04-03T09:45:56.269Z,0.8
2023-04-03T09:47:59.920Z,0.4
2023-04-03T10:00:24.338Z,0.3
2023-04-03T10:08:59.135Z,0.4
2023-04-03T10:11:02.690Z,0.3
2023-04-03T10:13:10.599Z,0.5
2023-04-03T10:15:12.841Z,0.4
2023-04-03T10:17:16.360Z,0.4
2023-04-03T10:19:19.894Z,0.5
2023-04-03T10:21:27.527Z,0.3
2023-04-03T10:23:26.979Z,0.6
2023-04-03T10:25:30.539Z,0.5
2023-04-03T10:29:40.666Z,0.4
2023-04-03T10:31:44.165Z,0.4
2023-04-03T10:33:47.683Z,0.4
2023-04-03T10:35:51.251Z,0.5
2023-04-03T10:37:54.744Z,0.5
2023-04-03T10:39:58.283Z,0.5
2023-04-03T10:44:08.385Z,0.5
2023-04-03T10:50:19.845Z,0.4
2023-04-03T10:52:23.404Z,0.2
2023-04-03T10:56:33.476Z,0.5
2023-04-03T10:58:36.978Z,0.4
2023-04-03T11:01:43.808Z,0.5
2023-04-03T11:07:55.337Z,0.9
2023-04-03T11:14:07.855Z,0.4
2023-04-03T11:20:18.196Z,0.8
2023-04-03T11:26:31.690Z,0.7
2023-04-03T11:28:35.211Z,0.3
2023-04-03T11:30:38.666Z,1
2023-04-03T11:32:42.155Z,0.3
2023-04-03T11:38:55.869Z,0.5
2023-04-03T11:43:02.488Z,0.8
2023-04-03T11:45:05.925Z,0.4
2023-04-03T11:47:09.499Z,0.4
2023-04-03T11:49:12.855Z,0.7
2023-04-03T11:51:16.322Z,0.8
2023-04-03T11:53:22.841Z,0.6
2023-04-03T11:55:26.198Z,0.8
2023-04-03T11:57:29.712Z,0.4
2023-04-03T12:00:36.367Z,1.1
2023-04-03T12:02:53.378Z,1
2023-04-03T12:06:51.304Z,0.5
2023-04-03T12:08:54.701Z,0.4
2023-04-03T12:13:01.590Z,0.8
2023-04-03T12:15:05.011Z,0.4
2023-04-03T12:19:11.866Z,0.4
2023-04-03T12:23:21.788Z,0.7
2023-04-03T12:25:25.133Z,0.5
2023-04-03T12:29:31.977Z,0.4
2023-04-03T12:31:35.371Z,0.8
2023-04-03T12:33:38.701Z,1.3
2023-04-03T12:35:45.230Z,1
2023-04-03T12:37:48.606Z,0.9
2023-04-03T12:39:52.019Z,0.6
2023-04-03T12:41:55.395Z,0.9
2023-04-03T12:43:58.704Z,0.4
2023-04-03T12:46:02.187Z,0.7
2023-04-03T12:48:05.613Z,0.7
2023-04-03T12:50:11.897Z,0.8
2023-04-03T12:52:15.189Z,0.7
2023-04-03T12:54:18.590Z,0.6
2023-04-03T12:55:21.858Z,0.7
2023-04-03T13:01:37.000Z,0.8
2023-04-03T13:03:38.553Z,0.8
2023-04-03T13:05:42.087Z,0.9
2023-04-03T13:34:35.918Z,1.6
2023-04-03T13:36:39.229Z,1.1
2023-04-03T13:38:42.667Z,1
2023-04-03T13:40:47.952Z,1.2
2023-04-03T13:42:49.795Z,0.8
2023-04-03T13:51:06.283Z,0.8
2023-04-03T13:55:39.625Z,0.9
2023-04-03T13:57:42.849Z,1.4
2023-04-03T13:59:49.297Z,0.8
2023-04-03T14:10:06.317Z,1.3
2023-04-03T14:12:15.334Z,0.6
2023-04-03T14:14:16.172Z,1
2023-04-03T14:16:19.594Z,0.9
2023-04-03T14:18:23.023Z,1.1
2023-04-03T14:32:49.803Z,1.3
2023-04-03T14:38:59.771Z,0.8
2023-04-03T14:43:09.659Z,1
2023-04-03T14:45:13.029Z,1
2023-04-03T14:47:27.323Z,1.5
2023-04-03T14:48:19.901Z,1.2
2023-04-03T14:50:23.120Z,1.1
2023-04-03T14:52:26.544Z,0.8
2023-04-03T14:54:29.998Z,1
2023-04-03T14:56:36.534Z,0.9
2023-04-03T14:58:40.007Z,1.1
2023-04-03T15:00:43.411Z,1.2
2023-04-03T15:02:47.296Z,1.2
2023-04-03T15:04:52.129Z,1.1
2023-04-03T15:06:53.804Z,1.1
2023-04-03T15:08:57.307Z,0.9
2023-04-03T15:11:03.829Z,0.9
2023-04-03T15:13:07.369Z,1.1
2023-04-03T15:15:10.821Z,1
2023-04-03T15:17:14.293Z,0.9
2023-04-03T15:19:17.783Z,0.9
2023-04-03T15:21:21.287Z,0.8
2023-04-03T15:23:24.757Z,0.9
2023-04-03T15:25:31.374Z,1.1
2023-04-03T15:27:34.894Z,1
2023-04-03T15:31:41.999Z,0.9
2023-04-03T15:47:13.085Z,1.4
2023-04-03T15:49:16.612Z,1.2
2023-04-03T15:51:20.160Z,0.6
2023-04-03T15:53:26.806Z,0.9
2023-04-03T15:55:30.331Z,0.7
2023-04-03T16:01:41.012Z,0.9
2023-04-03T16:03:44.603Z,0.7
2023-04-03T16:05:48.700Z,1
2023-04-03T16:07:55.340Z,1.2
2023-04-03T16:14:05.963Z,0.7
2023-04-03T16:16:09.505Z,0.7
2023-04-03T16:18:13.040Z,0.9
2023-04-03T16:34:45.036Z,0.9
2023-04-03T16:36:51.155Z,0.7
2023-04-03T16:38:54.603Z,0.7
2023-04-03T16:44:05.126Z,1.2
2023-04-03T16:46:08.677Z,1.1
2023-04-03T16:48:12.278Z,1.1
2023-04-03T16:50:18.910Z,1.1
2023-04-03T16:52:22.421Z,1
2023-04-03T16:54:26.003Z,1
2023-04-03T16:56:29.562Z,0.6
2023-04-03T16:58:33.095Z,0.8
2023-04-03T17:00:36.661Z,1.1
2023-04-03T17:02:40.210Z,1.4
2023-04-03T17:04:46.857Z,0.9
2023-04-03T17:06:50.361Z,0.9
2023-04-03T17:08:53.919Z,1.1
2023-04-03T17:10:57.457Z,1
2023-04-03T17:13:01.020Z,0.9
2023-04-03T17:15:04.620Z,1.1
2023-04-03T17:17:08.160Z,1
2023-04-03T17:19:14.792Z,1.2
2023-04-03T17:21:18.333Z,0.9
2023-04-03T17:35:46.438Z,0.9
2023-04-03T17:42:17.748Z,1.4
2023-04-03T17:46:28.088Z,0.9
2023-04-03T17:50:35.178Z,0.9
2023-04-03T17:52:38.817Z,0.8
2023-04-03T17:54:42.421Z,0.6
2023-04-03T17:56:46.021Z,0.9
2023-04-03T17:58:49.759Z,1.3
2023-04-03T18:00:56.324Z,1.3
2023-04-03T18:03:01.648Z,1.1
2023-04-03T18:05:05.131Z,1
2023-04-03T18:07:08.718Z,1
2023-04-03T18:09:12.365Z,1.1
2023-04-03T18:11:15.996Z,1.4
2023-04-03T18:13:19.657Z,1.5
2023-04-03T18:19:33.594Z,1.4
2023-04-03T18:21:37.260Z,1.4
2023-04-03T18:23:40.905Z,1.6
2023-04-03T18:25:44.557Z,1.2
2023-04-03T18:27:48.186Z,1.5
2023-04-03T18:29:54.877Z,1.1
2023-04-03T18:31:58.768Z,1.5
2023-04-03T18:35:05.579Z,1.4
2023-04-03T18:37:09.173Z,1.6
2023-04-03T18:39:12.827Z,1.1
2023-04-03T18:41:16.486Z,1.2
2023-04-03T18:43:23.167Z,1.4
2023-04-03T18:45:26.846Z,1.4
2023-04-03T18:53:41.557Z,1.5
2023-04-03T18:57:51.824Z,1.9
2023-04-03T18:59:55.447Z,1.8
2023-04-03T19:04:02.722Z,2.2
2023-04-03T19:06:06.411Z,1.5
2023-04-03T19:10:13.729Z,1.6
2023-04-03T19:16:27.780Z,1.9
2023-04-03T19:18:31.385Z,1.9
2023-04-03T19:20:35.073Z,1.7
2023-04-03T19:22:38.704Z,1.8
2023-04-03T19:31:59.787Z,2.1
2023-04-03T19:34:03.416Z,2
2023-04-03T19:48:32.164Z,2.3
2023-04-03T19:50:35.843Z,1.8
2023-04-03T19:52:39.481Z,2.6
2023-04-03T19:54:46.182Z,2.4
2023-04-03T19:56:49.834Z,2.4
2023-04-03T19:58:54.153Z,2.2
2023-04-03T20:00:57.155Z,2.1
2023-04-03T20:03:00.851Z,1.7
2023-04-03T20:05:04.487Z,1.6
2023-04-03T20:11:18.503Z,1.9
2023-04-03T20:13:22.199Z,2.2
2023-04-03T20:15:25.940Z,2.4
2023-04-03T20:17:29.620Z,2.7
2023-04-03T20:21:36.923Z,2.9
2023-04-03T20:23:43.739Z,2.6
2023-04-03T20:25:57.643Z,2.6
2023-04-03T20:27:51.071Z,3.2
2023-04-03T20:28:54.496Z,3
2023-04-03T20:35:05.663Z,2.5
2023-04-03T20:37:12.374Z,3
2023-04-03T20:39:16.126Z,2.7
2023-04-03T20:45:27.237Z,2.7
2023-04-03T20:47:31.043Z,2.3
2023-04-03T20:49:34.725Z,2.4
2023-04-03T20:51:41.464Z,2.9
2023-04-03T20:53:45.254Z,2.4
2023-04-03T20:55:48.989Z,2.4
2023-04-03T20:57:54.650Z,2.5
2023-04-03T21:02:00.297Z,2
2023-04-03T21:08:14.608Z,2.4
2023-04-03T21:14:25.792Z,2.7
2023-04-03T21:16:29.591Z,3
2023-04-03T21:18:33.329Z,2.4
2023-04-03T21:20:40.653Z,2.8
2023-04-03T21:22:43.994Z,2.8
2023-04-03T21:24:47.677Z,2.8
2023-04-03T21:29:10.205Z,2.8
2023-04-03T21:31:13.942Z,2.9
2023-04-03T21:33:20.668Z,3.4
2023-04-03T21:35:24.339Z,3.4
2023-04-03T21:41:35.413Z,3.3
2023-04-03T21:43:39.174Z,2.5
2023-04-03T21:45:42.847Z,2.6
2023-04-03T21:47:49.820Z,3.3
2023-04-03T21:49:53.411Z,3.2
2023-04-03T21:51:57.166Z,2.9
2023-04-03T21:54:00.815Z,2.6
2023-04-03T21:56:04.522Z,3.7
2023-04-03T21:58:08.187Z,2.4
2023-04-03T22:00:11.912Z,2.4
2023-04-03T22:04:22.332Z,2.8
2023-04-03T22:10:33.442Z,2.7
2023-04-03T22:12:37.190Z,2.3
2023-04-03T22:14:40.818Z,2.9
2023-04-03T22:16:47.647Z,2.8
2023-04-03T22:18:51.335Z,3.5
2023-04-03T22:20:55.090Z,3.2
2023-04-03T22:21:58.468Z,3.4
2023-04-03T22:26:05.983Z,3.1
2023-04-03T22:28:09.690Z,3.2
2023-04-03T22:30:16.487Z,3.7
2023-04-03T22:36:27.602Z,3.6
2023-04-03T22:40:35.096Z,3.8
2023-04-03T22:46:49.477Z,3.9
2023-04-03T22:53:00.655Z,3.6
2023-04-03T22:55:18.099Z,3.8
2023-04-03T22:59:14.968Z,4
2023-04-03T23:03:22.501Z,3.4
2023-04-03T23:05:26.256Z,3.7
2023-04-03T23:11:37.469Z,4.1
2023-04-03T23:13:44.375Z,4.4
2023-04-03T23:15:48.032Z,4.2
2023-04-03T23:17:51.840Z,3.7
2023-04-03T23:18:55.173Z,3.2
2023-04-03T23:20:58.859Z,3.4
2023-04-03T23:23:02.614Z,4.2
2023-04-03T23:25:06.372Z,3.9
2023-04-03T23:31:20.744Z,3.9
2023-04-03T23:33:24.509Z,4.2
2023-04-03T23:35:28.155Z,3.4
2023-04-03T23:37:31.859Z,3.8
2023-04-03T23:39:35.712Z,4
2023-04-03T23:41:44.284Z,3.9
2023-04-03T23:43:46.550Z,3.5
2023-04-03T23:45:50.008Z,3.8
2023-04-03T23:47:53.789Z,4.9
2023-04-03T23:50:19.114Z,3.6
2023-04-03T23:54:04.932Z,5.6
2023-04-03T23:58:15.540Z,4.3
